sensor_id;sensor_type;location;lat;lon;timestamp;pressure;altitude;pressure_sealevel;temperature;humidity
64133;BME280;53116;52.020;4.446;2022-09-09T00:00:46;100729.28;;;24.61;56.47
64133;BME280;53116;52.020;4.446;2022-09-09T00:05:52;100729.28;;;24.61;57.04
64133;BME280;53116;52.020;4.446;2022-09-09T00:08:22;100716.03;;;24.61;56.44
64133;BME280;53116;52.020;4.446;2022-09-09T00:11:01;100714.34;;;24.59;56.48
64133;BME280;53116;52.020;4.446;2022-09-09T00:13:52;100715.34;;;24.58;56.30
64133;BME280;53116;52.020;4.446;2022-09-09T00:16:22;100705.56;;;24.59;56.47
64133;BME280;53116;52.020;4.446;2022-09-09T00:19:08;100718.97;;;24.57;56.66
64133;BME280;53116;52.020;4.446;2022-09-09T00:21:43;100718.97;;;24.57;56.36
64133;BME280;53116;52.020;4.446;2022-09-09T00:24:25;100714.50;;;24.58;56.67
64133;BME280;53116;52.020;4.446;2022-09-09T00:26:57;100715.50;;;24.57;56.51
64133;BME280;53116;52.020;4.446;2022-09-09T00:29:49;100717.16;;;24.58;56.96
64133;BME280;53116;52.020;4.446;2022-09-09T00:32:18;100714.63;;;24.56;56.51
64133;BME280;53116;52.020;4.446;2022-09-09T00:34:52;100708.47;;;24.56;56.38
64133;BME280;53116;52.020;4.446;2022-09-09T00:37:19;100703.16;;;24.56;56.59
64133;BME280;53116;52.020;4.446;2022-09-09T00:39:47;100701.38;;;24.56;56.96
64133;BME280;53116;52.020;4.446;2022-09-09T00:42:21;100698.84;;;24.55;56.76
64133;BME280;53116;52.020;4.446;2022-09-09T00:44:59;100708.47;;;24.56;56.64
64133;BME280;53116;52.020;4.446;2022-09-09T00:47:49;100698.84;;;24.55;56.58
64133;BME280;53116;52.020;4.446;2022-09-09T00:55:54;100703.31;;;24.54;56.49
64133;BME280;53116;52.020;4.446;2022-09-09T00:58:21;100698.84;;;24.55;56.52
64133;BME280;53116;52.020;4.446;2022-09-09T01:00:52;100697.19;;;24.54;56.42
64133;BME280;53116;52.020;4.446;2022-09-09T01:03:27;100696.19;;;24.55;56.72
64133;BME280;53116;52.020;4.446;2022-09-09T01:09:04;100683.91;;;24.54;56.78
64133;BME280;53116;52.020;4.446;2022-09-09T01:11:52;100680.41;;;24.53;57.02
64133;BME280;53116;52.020;4.446;2022-09-09T01:14:30;100683.91;;;24.54;56.79
64133;BME280;53116;52.020;4.446;2022-09-09T01:17:28;100681.25;;;24.54;56.97
64133;BME280;53116;52.020;4.446;2022-09-09T01:20:02;100669.78;;;24.53;56.62
64133;BME280;53116;52.020;4.446;2022-09-09T01:26:12;100674.28;;;24.53;56.80
64133;BME280;53116;52.020;4.446;2022-09-09T01:28:40;100668.13;;;24.52;56.75
64133;BME280;53116;52.020;4.446;2022-09-09T01:31:07;100668.13;;;24.52;56.61
64133;BME280;53116;52.020;4.446;2022-09-09T01:33:34;100669.94;;;24.52;56.70
64133;BME280;53116;52.020;4.446;2022-09-09T01:36:01;100669.94;;;24.52;56.55
64133;BME280;53116;52.020;4.446;2022-09-09T01:38:31;100667.28;;;24.52;57.13
64133;BME280;53116;52.020;4.446;2022-09-09T01:40:57;100661.16;;;24.51;57.03
64133;BME280;53116;52.020;4.446;2022-09-09T01:43:24;100657.53;;;24.52;56.78
64133;BME280;53116;52.020;4.446;2022-09-09T01:45:53;100650.69;;;24.50;56.96
64133;BME280;53116;52.020;4.446;2022-09-09T01:48:21;100654.00;;;24.52;56.85
64133;BME280;53116;52.020;4.446;2022-09-09T01:50:47;100641.91;;;24.49;56.52
64133;BME280;53116;52.020;4.446;2022-09-09T01:53:13;100646.34;;;24.49;56.66
64133;BME280;53116;52.020;4.446;2022-09-09T01:55:44;100658.63;;;24.50;56.76
64133;BME280;53116;52.020;4.446;2022-09-09T01:58:21;100658.63;;;24.50;56.56
64133;BME280;53116;52.020;4.446;2022-09-09T02:01:32;100649.84;;;24.49;56.89
64133;BME280;53116;52.020;4.446;2022-09-09T02:04:04;100636.59;;;24.49;56.99
64133;BME280;53116;52.020;4.446;2022-09-09T02:06:35;100647.19;;;24.49;56.92
64133;BME280;53116;52.020;4.446;2022-09-09T02:09:05;100649.84;;;24.49;56.67
64133;BME280;53116;52.020;4.446;2022-09-09T02:11:31;100639.25;;;24.49;56.72
64133;BME280;53116;52.020;4.446;2022-09-09T02:14:02;100640.22;;;24.48;56.67
64133;BME280;53116;52.020;4.446;2022-09-09T02:16:38;100633.09;;;24.49;56.72
64133;BME280;53116;52.020;4.446;2022-09-09T02:19:09;100636.59;;;24.49;56.84
64133;BME280;53116;52.020;4.446;2022-09-09T02:21:39;100631.28;;;24.49;56.53
64133;BME280;53116;52.020;4.446;2022-09-09T02:24:08;100623.47;;;24.48;56.60
64133;BME280;53116;52.020;4.446;2022-09-09T02:26:38;100623.47;;;24.48;56.81
64133;BME280;53116;52.020;4.446;2022-09-09T02:29:17;100616.47;;;24.47;56.92
64133;BME280;53116;52.020;4.446;2022-09-09T02:31:45;100615.66;;;24.46;56.87
64133;BME280;53116;52.020;4.446;2022-09-09T02:34:13;100612.16;;;24.46;56.70
64133;BME280;53116;52.020;4.446;2022-09-09T02:36:42;100612.16;;;24.46;56.78
64133;BME280;53116;52.020;4.446;2022-09-09T02:39:09;100609.50;;;24.46;56.82
64133;BME280;53116;52.020;4.446;2022-09-09T02:41:40;100612.16;;;24.46;56.57
64133;BME280;53116;52.020;4.446;2022-09-09T02:44:10;100612.16;;;24.46;56.74
64133;BME280;53116;52.020;4.446;2022-09-09T02:49:40;100611.19;;;24.47;56.88
64133;BME280;53116;52.020;4.446;2022-09-09T02:52:15;100609.50;;;24.46;56.95
64133;BME280;53116;52.020;4.446;2022-09-09T02:54:43;100611.19;;;24.47;57.07
64133;BME280;53116;52.020;4.446;2022-09-09T02:57:24;100613.16;;;24.45;56.70
64133;BME280;53116;52.020;4.446;2022-09-09T02:59:51;100608.53;;;24.47;56.64
64133;BME280;53116;52.020;4.446;2022-09-09T03:02:20;100611.31;;;24.45;56.99
64133;BME280;53116;52.020;4.446;2022-09-09T03:04:45;100608.66;;;24.45;56.69
64133;BME280;53116;52.020;4.446;2022-09-09T03:07:16;100607.84;;;24.45;56.86
64133;BME280;53116;52.020;4.446;2022-09-09T03:09:42;100597.22;;;24.45;56.78
64133;BME280;53116;52.020;4.446;2022-09-09T03:12:07;100602.53;;;24.45;56.76
64133;BME280;53116;52.020;4.446;2022-09-09T03:14:33;100591.09;;;24.44;56.84
64133;BME280;53116;52.020;4.446;2022-09-09T03:16:58;100596.41;;;24.44;56.76
64133;BME280;53116;52.020;4.446;2022-09-09T03:19:26;100583.16;;;24.44;56.82
64133;BME280;53116;52.020;4.446;2022-09-09T03:21:51;100590.25;;;24.44;56.76
64133;BME280;53116;52.020;4.446;2022-09-09T03:24:16;100594.56;;;24.45;57.03
64133;BME280;53116;52.020;4.446;2022-09-09T03:26:42;100592.06;;;24.43;56.87
64133;BME280;53116;52.020;4.446;2022-09-09T03:29:11;100594.72;;;24.43;56.79
64133;BME280;53116;52.020;4.446;2022-09-09T03:31:40;100584.94;;;24.44;56.64
64133;BME280;53116;52.020;4.446;2022-09-09T03:34:06;100587.59;;;24.44;56.76
64133;BME280;53116;52.020;4.446;2022-09-09T03:36:32;100586.78;;;24.43;56.77
64133;BME280;53116;52.020;4.446;2022-09-09T03:38:57;100581.47;;;24.43;56.86
64133;BME280;53116;52.020;4.446;2022-09-09T03:41:24;100584.94;;;24.44;56.90
64133;BME280;53116;52.020;4.446;2022-09-09T03:43:53;100585.09;;;24.42;56.57
64133;BME280;53116;52.020;4.446;2022-09-09T03:46:24;100585.09;;;24.42;56.88
64133;BME280;53116;52.020;4.446;2022-09-09T03:48:49;100589.41;;;24.43;56.84
64133;BME280;53116;52.020;4.446;2022-09-09T03:51:15;100588.59;;;24.42;56.68
64133;BME280;53116;52.020;4.446;2022-09-09T03:53:41;100584.25;;;24.41;56.65
64133;BME280;53116;52.020;4.446;2022-09-09T03:56:06;100578.97;;;24.41;56.57
64133;BME280;53116;52.020;4.446;2022-09-09T03:58:36;100587.75;;;24.42;56.73
64133;BME280;53116;52.020;4.446;2022-09-09T04:01:07;100579.78;;;24.42;56.73
64133;BME280;53116;52.020;4.446;2022-09-09T04:03:39;100580.78;;;24.41;56.85
64133;BME280;53116;52.020;4.446;2022-09-09T04:06:05;100577.28;;;24.40;56.82
64133;BME280;53116;52.020;4.446;2022-09-09T04:08:33;100577.28;;;24.40;56.21
64133;BME280;53116;52.020;4.446;2022-09-09T04:10:59;100574.00;;;24.29;54.75
64133;BME280;53116;52.020;4.446;2022-09-09T04:13:30;100574.50;;;24.14;54.12
64133;BME280;53116;52.020;4.446;2022-09-09T04:15:58;100570.22;;;24.03;53.59
64133;BME280;53116;52.020;4.446;2022-09-09T04:18:24;100568.75;;;23.91;53.67
64133;BME280;53116;52.020;4.446;2022-09-09T04:20:50;100567.91;;;23.81;53.76
64133;BME280;53116;52.020;4.446;2022-09-09T04:23:17;100553.19;;;23.68;53.53
64133;BME280;53116;52.020;4.446;2022-09-09T04:25:48;100548.75;;;23.59;53.97
64133;BME280;53116;52.020;4.446;2022-09-09T04:28:14;100554.34;;;23.46;53.94
64133;BME280;53116;52.020;4.446;2022-09-09T04:30:41;100548.09;;;23.38;54.01
64133;BME280;53116;52.020;4.446;2022-09-09T04:33:07;100543.53;;;23.30;54.26
64133;BME280;53116;52.020;4.446;2022-09-09T04:35:32;100545.19;;;23.21;54.50
64133;BME280;53116;52.020;4.446;2022-09-09T04:37:58;100544.78;;;23.16;54.64
64133;BME280;53116;52.020;4.446;2022-09-09T04:40:23;100537.66;;;23.07;54.79
64133;BME280;53116;52.020;4.446;2022-09-09T04:42:49;100542.69;;;23.00;54.98
64133;BME280;53116;52.020;4.446;2022-09-09T04:45:15;100535.31;;;22.94;54.88
64133;BME280;53116;52.020;4.446;2022-09-09T04:47:40;100530.44;;;22.89;55.21
64133;BME280;53116;52.020;4.446;2022-09-09T04:50:07;100538.25;;;22.81;55.66
64133;BME280;53116;52.020;4.446;2022-09-09T04:52:34;100531.97;;;22.72;55.61
64133;BME280;53116;52.020;4.446;2022-09-09T04:55:00;100540.72;;;22.63;55.55
64133;BME280;53116;52.020;4.446;2022-09-09T04:57:25;100541.56;;;22.54;55.92
64133;BME280;53116;52.020;4.446;2022-09-09T04:59:50;100535.69;;;22.50;55.99
64133;BME280;53116;52.020;4.446;2022-09-09T05:02:16;100543.22;;;22.45;56.38
64133;BME280;53116;52.020;4.446;2022-09-09T05:04:41;100552.69;;;22.38;56.50
64133;BME280;53116;52.020;4.446;2022-09-09T05:07:06;100543.19;;;22.35;56.46
64133;BME280;53116;52.020;4.446;2022-09-09T05:09:32;100546.94;;;22.33;56.79
64133;BME280;53116;52.020;4.446;2022-09-09T05:11:57;100540.13;;;22.30;57.03
64133;BME280;53116;52.020;4.446;2022-09-09T05:14:23;100538.69;;;22.26;57.11
64133;BME280;53116;52.020;4.446;2022-09-09T05:16:48;100536.31;;;22.23;57.15
64133;BME280;53116;52.020;4.446;2022-09-09T05:19:14;100530.75;;;22.16;57.33
64133;BME280;53116;52.020;4.446;2022-09-09T05:21:40;100536.28;;;22.13;57.50
64133;BME280;53116;52.020;4.446;2022-09-09T05:24:06;100533.91;;;22.10;57.41
64133;BME280;53116;52.020;4.446;2022-09-09T05:26:32;100528.91;;;22.07;57.59
64133;BME280;53116;52.020;4.446;2022-09-09T05:28:57;100525.13;;;22.00;57.97
64133;BME280;53116;52.020;4.446;2022-09-09T05:31:24;100531.66;;;21.96;58.20
64133;BME280;53116;52.020;4.446;2022-09-09T05:33:52;100525.66;;;21.94;58.20
64133;BME280;53116;52.020;4.446;2022-09-09T05:36:20;100525.81;;;21.92;58.49
64133;BME280;53116;52.020;4.446;2022-09-09T05:38:46;100535.53;;;21.92;58.32
64133;BME280;53116;52.020;4.446;2022-09-09T05:41:13;100536.94;;;21.96;59.19
64133;BME280;53116;52.020;4.446;2022-09-09T05:43:40;100545.28;;;22.01;60.55
64133;BME280;53116;52.020;4.446;2022-09-09T05:46:09;100539.88;;;22.02;60.25
64133;BME280;53116;52.020;4.446;2022-09-09T05:48:36;100543.22;;;22.04;60.07
64133;BME280;53116;52.020;4.446;2022-09-09T05:51:03;100539.47;;;22.07;60.05
64133;BME280;53116;52.020;4.446;2022-09-09T05:53:29;100552.28;;;22.12;60.20
64133;BME280;53116;52.020;4.446;2022-09-09T05:58:25;100549.25;;;22.16;60.12
64133;BME280;53116;52.020;4.446;2022-09-09T06:00:50;100544.78;;;22.17;60.19
64133;BME280;53116;52.020;4.446;2022-09-09T06:03:16;100556.91;;;22.19;59.79
64133;BME280;53116;52.020;4.446;2022-09-09T06:05:42;100551.34;;;22.22;60.01
64133;BME280;53116;52.020;4.446;2022-09-09T06:08:07;100555.66;;;22.23;60.18
64133;BME280;53116;52.020;4.446;2022-09-09T06:10:33;100556.09;;;22.29;59.65
64133;BME280;53116;52.020;4.446;2022-09-09T06:12:59;100553.34;;;22.30;59.74
64133;BME280;53116;52.020;4.446;2022-09-09T06:15:26;100552.38;;;22.31;59.86
64133;BME280;53116;52.020;4.446;2022-09-09T06:17:55;100556.56;;;22.34;59.28
64133;BME280;53116;52.020;4.446;2022-09-09T06:20:21;100555.59;;;22.35;59.18
64133;BME280;53116;52.020;4.446;2022-09-09T06:22:47;100559.06;;;22.35;59.24
64133;BME280;53116;52.020;4.446;2022-09-09T06:25:13;100553.78;;;22.35;59.26
64133;BME280;53116;52.020;4.446;2022-09-09T06:27:39;100553.66;;;22.37;58.91
64133;BME280;53116;52.020;4.446;2022-09-09T06:30:04;100560.63;;;22.38;59.17
64133;BME280;53116;52.020;4.446;2022-09-09T06:32:30;100561.44;;;22.38;58.81
64133;BME280;53116;52.020;4.446;2022-09-09T06:34:56;100559.50;;;22.40;58.77
64133;BME280;53116;52.020;4.446;2022-09-09T06:37:21;100555.03;;;22.41;59.05
64133;BME280;53116;52.020;4.446;2022-09-09T06:39:49;100553.09;;;22.43;58.93
64133;BME280;53116;52.020;4.446;2022-09-09T06:42:14;100545.84;;;22.45;58.79
64133;BME280;53116;52.020;4.446;2022-09-09T06:44:40;100551.69;;;22.49;59.09
64133;BME280;53116;52.020;4.446;2022-09-09T06:47:06;100556.72;;;22.52;58.79
64133;BME280;53116;52.020;4.446;2022-09-09T06:49:31;100557.31;;;22.55;59.08
64133;BME280;53116;52.020;4.446;2022-09-09T06:51:56;100551.84;;;22.57;58.94
64133;BME280;53116;52.020;4.446;2022-09-09T06:54:22;100556.88;;;22.60;59.01
64133;BME280;53116;52.020;4.446;2022-09-09T06:56:48;100549.66;;;22.62;58.93
64133;BME280;53116;52.020;4.446;2022-09-09T06:59:15;100560.78;;;22.66;58.53
64133;BME280;53116;52.020;4.446;2022-09-09T07:01:42;100557.03;;;22.68;58.39
64133;BME280;53116;52.020;4.446;2022-09-09T07:04:12;100550.63;;;22.71;58.51
64133;BME280;53116;52.020;4.446;2022-09-09T07:06:43;100552.97;;;22.74;58.68
64133;BME280;53116;52.020;4.446;2022-09-09T07:09:11;100548.38;;;22.76;58.56
64133;BME280;53116;52.020;4.446;2022-09-09T07:11:40;100551.75;;;22.78;58.37
64133;BME280;53116;52.020;4.446;2022-09-09T07:14:07;100549.78;;;22.80;58.23
64133;BME280;53116;52.020;4.446;2022-09-09T07:16:33;100550.47;;;22.82;58.45
64133;BME280;53116;52.020;4.446;2022-09-09T07:18:58;100542.25;;;22.85;58.59
64133;BME280;53116;52.020;4.446;2022-09-09T07:21:26;100538.66;;;22.86;58.21
64133;BME280;53116;52.020;4.446;2022-09-09T07:23:53;100542.13;;;22.87;58.12
64133;BME280;53116;52.020;4.446;2022-09-09T07:26:21;100544.91;;;22.85;57.64
64133;BME280;53116;52.020;4.446;2022-09-09T07:28:47;100542.41;;;22.84;57.83
64133;BME280;53116;52.020;4.446;2022-09-09T07:31:21;100546.88;;;22.83;57.77
64133;BME280;53116;52.020;4.446;2022-09-09T07:33:47;100542.53;;;22.82;57.49
64133;BME280;53116;52.020;4.446;2022-09-09T07:36:15;100539.06;;;22.82;57.61
64133;BME280;53116;52.020;4.446;2022-09-09T07:38:43;100551.47;;;22.81;57.44
64133;BME280;53116;52.020;4.446;2022-09-09T07:41:12;100547.97;;;22.80;57.37
64133;BME280;53116;52.020;4.446;2022-09-09T07:43:39;100557.59;;;22.82;57.46
64133;BME280;53116;52.020;4.446;2022-09-09T07:46:06;100559.41;;;22.81;57.61
64133;BME280;53116;52.020;4.446;2022-09-09T07:48:31;100552.44;;;22.80;57.56
64133;BME280;53116;52.020;4.446;2022-09-09T07:51:12;100554.41;;;22.78;57.62
64133;BME280;53116;52.020;4.446;2022-09-09T07:53:42;100553.41;;;22.79;57.69
64133;BME280;53116;52.020;4.446;2022-09-09T07:56:09;100551.59;;;22.79;57.64
64133;BME280;53116;52.020;4.446;2022-09-09T07:58:39;100554.13;;;22.81;57.41
64133;BME280;53116;52.020;4.446;2022-09-09T08:01:23;100549.78;;;22.80;57.50
64133;BME280;53116;52.020;4.446;2022-09-09T08:04:00;100554.13;;;22.81;57.74
64133;BME280;53116;52.020;4.446;2022-09-09T08:06:31;100560.22;;;22.82;57.74
64133;BME280;53116;52.020;4.446;2022-09-09T08:08:58;100557.44;;;22.83;57.46
64133;BME280;53116;52.020;4.446;2022-09-09T08:11:25;100558.41;;;22.82;57.44
64133;BME280;53116;52.020;4.446;2022-09-09T08:13:52;100553.13;;;22.82;57.14
64133;BME280;53116;52.020;4.446;2022-09-09T08:16:20;100553.13;;;22.82;57.36
64133;BME280;53116;52.020;4.446;2022-09-09T08:18:49;100553.84;;;22.84;57.80
64133;BME280;53116;52.020;4.446;2022-09-09T08:21:23;100557.31;;;22.85;57.35
64133;BME280;53116;52.020;4.446;2022-09-09T08:23:50;100551.19;;;22.84;57.48
64133;BME280;53116;52.020;4.446;2022-09-09T08:26:19;100558.28;;;22.84;57.45
64133;BME280;53116;52.020;4.446;2022-09-09T08:28:49;100565.66;;;22.80;57.37
64133;BME280;53116;52.020;4.446;2022-09-09T08:31:19;100557.03;;;22.78;57.85
64133;BME280;53116;52.020;4.446;2022-09-09T08:33:45;100562.47;;;22.76;57.55
64133;BME280;53116;52.020;4.446;2022-09-09T08:36:13;100557.31;;;22.75;57.71
64133;BME280;53116;52.020;4.446;2022-09-09T08:38:41;100555.63;;;22.74;57.61
64133;BME280;53116;52.020;4.446;2022-09-09T08:47:18;100556.03;;;22.69;57.74
64133;BME280;53116;52.020;4.446;2022-09-09T08:50:02;100561.34;;;22.69;58.26
64133;BME280;53116;52.020;4.446;2022-09-09T08:52:48;100560.50;;;22.69;57.64
64133;BME280;53116;52.020;4.446;2022-09-09T08:57:57;100561.75;;;22.65;58.07
64133;BME280;53116;52.020;4.446;2022-09-09T09:00:35;100567.16;;;22.63;58.17
64133;BME280;53116;52.020;4.446;2022-09-09T09:03:15;100569.69;;;22.65;58.30
64133;BME280;53116;52.020;4.446;2022-09-09T09:05:56;100569.41;;;22.68;58.55
64133;BME280;53116;52.020;4.446;2022-09-09T09:08:34;100569.72;;;22.74;58.89
64133;BME280;53116;52.020;4.446;2022-09-09T09:11:03;100571.91;;;22.79;59.04
64133;BME280;53116;52.020;4.446;2022-09-09T09:13:40;100576.66;;;22.85;59.50
64133;BME280;53116;52.020;4.446;2022-09-09T09:16:48;100576.13;;;22.91;59.24
64133;BME280;53116;52.020;4.446;2022-09-09T09:19:16;100578.34;;;22.96;59.50
64133;BME280;53116;52.020;4.446;2022-09-09T09:21:42;100576.97;;;23.02;59.72
64133;BME280;53116;52.020;4.446;2022-09-09T09:24:20;100575.56;;;23.07;59.52
64133;BME280;53116;52.020;4.446;2022-09-09T09:26:46;100577.00;;;23.11;59.67
64133;BME280;53116;52.020;4.446;2022-09-09T09:29:17;100573.06;;;23.15;59.67
64133;BME280;53116;52.020;4.446;2022-09-09T09:31:55;100561.91;;;23.22;59.79
64133;BME280;53116;52.020;4.446;2022-09-09T09:34:24;100564.13;;;23.26;59.97
64133;BME280;53116;52.020;4.446;2022-09-09T09:36:57;100566.66;;;23.28;58.13
64133;BME280;53116;52.020;4.446;2022-09-09T09:39:28;100565.81;;;23.27;57.65
64133;BME280;53116;52.020;4.446;2022-09-09T09:41:54;100563.03;;;23.29;58.16
64133;BME280;53116;52.020;4.446;2022-09-09T09:44:31;100561.06;;;23.31;58.18
64133;BME280;53116;52.020;4.446;2022-09-09T09:47:12;100555.63;;;23.32;58.66
64133;BME280;53116;52.020;4.446;2022-09-09T09:49:38;100558.13;;;23.34;58.38
64133;BME280;53116;52.020;4.446;2022-09-09T09:52:06;100560.63;;;23.36;58.37
64133;BME280;53116;52.020;4.446;2022-09-09T09:54:42;100554.38;;;23.37;57.88
64133;BME280;53116;52.020;4.446;2022-09-09T09:57:12;100558.53;;;23.39;58.40
64133;BME280;53116;52.020;4.446;2022-09-09T09:59:38;100556.59;;;23.41;58.18
64133;BME280;53116;52.020;4.446;2022-09-09T10:02:23;100558.81;;;23.46;58.48
64133;BME280;53116;52.020;4.446;2022-09-09T10:05:13;100554.22;;;23.48;58.36
64133;BME280;53116;52.020;4.446;2022-09-09T10:07:39;100553.94;;;23.51;57.93
64133;BME280;53116;52.020;4.446;2022-09-09T10:10:08;100557.13;;;23.55;58.45
64133;BME280;53116;52.020;4.446;2022-09-09T10:12:43;100567.44;;;23.58;58.48
64133;BME280;53116;52.020;4.446;2022-09-09T10:15:36;100561.84;;;23.61;58.00
64133;BME280;53116;52.020;4.446;2022-09-09T10:20:45;100563.09;;;23.66;58.27
64133;BME280;53116;52.020;4.446;2022-09-09T10:26:39;100561.81;;;23.70;58.52
64133;BME280;53116;52.020;4.446;2022-09-09T10:29:31;100563.63;;;23.70;57.89
64133;BME280;53116;52.020;4.446;2022-09-09T10:35:04;100564.31;;;23.72;57.74
64133;BME280;53116;52.020;4.446;2022-09-09T10:40:33;100564.03;;;23.75;58.21
64133;BME280;53116;52.020;4.446;2022-09-09T10:46:26;100559.56;;;23.76;57.55
64133;BME280;53116;52.020;4.446;2022-09-09T10:51:56;100547.88;;;23.68;57.79
64133;BME280;53116;52.020;4.446;2022-09-09T10:54:35;100559.44;;;23.67;57.84
64133;BME280;53116;52.020;4.446;2022-09-09T10:57:11;100551.63;;;23.66;57.93
64133;BME280;53116;52.020;4.446;2022-09-09T10:59:44;100551.78;;;23.64;57.75
64133;BME280;53116;52.020;4.446;2022-09-09T11:02:28;100558.91;;;23.64;57.74
64133;BME280;53116;52.020;4.446;2022-09-09T11:05:20;100549.28;;;23.63;58.11
64133;BME280;53116;52.020;4.446;2022-09-09T11:07:48;100547.78;;;23.60;57.98
64133;BME280;53116;52.020;4.446;2022-09-09T11:10:40;100554.03;;;23.59;58.22
64133;BME280;53116;52.020;4.446;2022-09-09T11:13:15;100546.09;;;23.59;58.28
64133;BME280;53116;52.020;4.446;2022-09-09T11:15:46;100548.06;;;23.57;58.21
64133;BME280;53116;52.020;4.446;2022-09-09T11:18:19;100553.50;;;23.56;58.38
64133;BME280;53116;52.020;4.446;2022-09-09T11:20:49;100539.38;;;23.55;58.20
64133;BME280;53116;52.020;4.446;2022-09-09T11:23:40;100553.63;;;23.54;58.77
64133;BME280;53116;52.020;4.446;2022-09-09T11:26:12;100551.28;;;23.51;58.47
64133;BME280;53116;52.020;4.446;2022-09-09T11:29:03;100547.47;;;23.54;58.45
64133;BME280;53116;52.020;4.446;2022-09-09T11:32:23;100543.47;;;23.49;58.72
64133;BME280;53116;52.020;4.446;2022-09-09T11:38:03;100552.53;;;23.47;58.58
64133;BME280;53116;52.020;4.446;2022-09-09T11:40:33;100559.66;;;23.46;58.41
64133;BME280;53116;52.020;4.446;2022-09-09T11:43:09;100562.16;;;23.48;58.67
64133;BME280;53116;52.020;4.446;2022-09-09T11:45:37;100562.84;;;23.50;58.78
64133;BME280;53116;52.020;4.446;2022-09-09T11:48:04;100558.53;;;23.49;58.86
64133;BME280;53116;52.020;4.446;2022-09-09T11:50:39;100567.31;;;23.49;58.52
64133;BME280;53116;52.020;4.446;2022-09-09T11:55:34;100572.72;;;23.58;63.06
64133;BME280;53116;52.020;4.446;2022-09-09T11:58:14;100571.63;;;23.60;67.75
64133;BME280;53116;52.020;4.446;2022-09-09T12:00:45;100570.91;;;23.58;61.78
64133;BME280;53116;52.020;4.446;2022-09-09T12:03:49;100572.19;;;23.54;62.22
64133;BME280;53116;52.020;4.446;2022-09-09T12:06:25;100559.38;;;23.49;64.13
64133;BME280;53116;52.020;4.446;2022-09-09T12:08:58;100560.75;;;23.44;67.47
64133;BME280;53116;52.020;4.446;2022-09-09T12:11:30;100571.63;;;23.41;68.92
64133;BME280;53116;52.020;4.446;2022-09-09T12:14:00;100570.94;;;23.39;69.49
64133;BME280;53116;52.020;4.446;2022-09-09T12:16:33;100567.91;;;23.33;70.02
64133;BME280;53116;52.020;4.446;2022-09-09T12:19:05;100573.34;;;23.32;71.94
64133;BME280;53116;52.020;4.446;2022-09-09T12:24:57;100571.53;;;23.23;70.97
64133;BME280;53116;52.020;4.446;2022-09-09T12:27:28;100573.38;;;23.22;73.75
64133;BME280;53116;52.020;4.446;2022-09-09T12:30:15;100571.28;;;23.16;72.12
64133;BME280;53116;52.020;4.446;2022-09-09T12:32:41;100573.38;;;23.12;71.15
64133;BME280;53116;52.020;4.446;2022-09-09T12:35:22;100575.84;;;23.14;74.09
64133;BME280;53116;52.020;4.446;2022-09-09T12:37:55;100581.00;;;23.15;74.71
64133;BME280;53116;52.020;4.446;2022-09-09T12:42:51;100585.63;;;23.13;74.57
64133;BME280;53116;52.020;4.446;2022-09-09T12:45:19;100584.38;;;23.08;72.82
64133;BME280;53116;52.020;4.446;2022-09-09T12:47:51;100579.19;;;23.06;74.85
64133;BME280;53116;52.020;4.446;2022-09-09T12:50:24;100587.28;;;23.05;75.35
64133;BME280;53116;52.020;4.446;2022-09-09T12:53:07;100593.53;;;23.04;73.44
64133;BME280;53116;52.020;4.446;2022-09-09T12:55:38;100579.47;;;23.03;74.69
64133;BME280;53116;52.020;4.446;2022-09-09T12:58:05;100588.66;;;22.99;73.63
64133;BME280;53116;52.020;4.446;2022-09-09T13:00:32;100590.75;;;22.95;72.48
64133;BME280;53116;52.020;4.446;2022-09-09T13:03:01;100590.06;;;22.93;73.05
64133;BME280;53116;52.020;4.446;2022-09-09T13:05:31;100579.47;;;22.93;73.15
64133;BME280;53116;52.020;4.446;2022-09-09T13:08:03;100590.06;;;22.93;74.92
64133;BME280;53116;52.020;4.446;2022-09-09T13:10:34;100587.25;;;22.95;74.89
64133;BME280;53116;52.020;4.446;2022-09-09T13:13:01;100583.38;;;22.99;73.40
64133;BME280;53116;52.020;4.446;2022-09-09T13:15:28;100580.31;;;23.04;73.27
64133;BME280;53116;52.020;4.446;2022-09-09T13:17:57;100584.25;;;23.09;76.29
64133;BME280;53116;52.020;4.446;2022-09-09T13:20:24;100588.41;;;23.12;75.84
64133;BME280;53116;52.020;4.446;2022-09-09T13:22:51;100591.59;;;23.15;75.03
64133;BME280;53116;52.020;4.446;2022-09-09T13:25:19;100602.91;;;23.18;73.99
64133;BME280;53116;52.020;4.446;2022-09-09T13:27:54;100594.69;;;23.21;72.64
64133;BME280;53116;52.020;4.446;2022-09-09T13:30:22;100602.34;;;23.24;73.60
64133;BME280;53116;52.020;4.446;2022-09-09T13:33:00;100595.91;;;23.26;73.21
64133;BME280;53116;52.020;4.446;2022-09-09T13:35:26;100594.94;;;23.27;73.56
64133;BME280;53116;52.020;4.446;2022-09-09T13:37:52;100595.63;;;23.29;73.11
64133;BME280;53116;52.020;4.446;2022-09-09T13:40:20;100611.53;;;23.29;73.52
64133;BME280;53116;52.020;4.446;2022-09-09T13:42:47;100617.53;;;23.31;74.19
64133;BME280;53116;52.020;4.446;2022-09-09T13:45:18;100623.66;;;23.32;76.22
64133;BME280;53116;52.020;4.446;2022-09-09T13:47:48;100620.19;;;23.31;74.60
64133;BME280;53116;52.020;4.446;2022-09-09T13:50:27;100614.91;;;23.31;74.46
64133;BME280;53116;52.020;4.446;2022-09-09T13:52:54;100606.78;;;23.33;75.50
64133;BME280;53116;52.020;4.446;2022-09-09T13:55:21;100601.47;;;23.33;74.04
64133;BME280;53116;52.020;4.446;2022-09-09T13:57:52;100590.88;;;23.33;70.72
64133;BME280;53116;52.020;4.446;2022-09-09T14:00:18;100598.81;;;23.33;70.24
64133;BME280;53116;52.020;4.446;2022-09-09T14:02:43;100595.34;;;23.32;70.02
64133;BME280;53116;52.020;4.446;2022-09-09T14:05:09;100591.75;;;23.33;70.25
64133;BME280;53116;52.020;4.446;2022-09-09T14:07:36;100586.44;;;23.33;70.21